Terminal Aerodrome Forecast
Issued by NWS

Home | Current Version | Previous Version | Text Only | Print | Product List | Glossary On
Versions: 1 2 3 4 5 6 7 8 9 10 11 12 13 14 15 16 17 18 19 20 21
000
FTUS41 KGYX 291442 AAA
TAFHIE
TAF AMD
KHIE 291442Z 2915/3012 32008KT P6SM BKN025
      TEMPO 2915/2918 2SM -SNRA=

USA.gov is the U.S. government's official web portal to all federal, state and local government web resources and services.